sensor_id;sensor_type;location;lat;lon;timestamp;P1;durP1;ratioP1;P2;durP2;ratioP2
69977;SDS011;57317;43.606;3.872;2024-03-23T00:52:05;24.98;;;10.27;;
69977;SDS011;57317;43.606;3.872;2024-03-23T00:54:31;28.77;;;10.90;;
69977;SDS011;57317;43.606;3.872;2024-03-23T00:56:57;27.13;;;11.18;;
69977;SDS011;57317;43.606;3.872;2024-03-23T00:59:22;24.33;;;10.10;;
69977;SDS011;57317;43.606;3.872;2024-03-23T01:01:52;28.98;;;10.13;;
69977;SDS011;57317;43.606;3.872;2024-03-23T01:04:17;25.73;;;10.25;;
69977;SDS011;57317;43.606;3.872;2024-03-23T01:06:43;29.90;;;10.35;;
69977;SDS011;57317;43.606;3.872;2024-03-23T01:09:08;26.10;;;10.70;;
69977;SDS011;57317;43.606;3.872;2024-03-23T01:11:36;29.17;;;10.20;;
69977;SDS011;57317;43.606;3.872;2024-03-23T01:14:02;27.42;;;10.35;;
69977;SDS011;57317;43.606;3.872;2024-03-23T01:16:28;26.98;;;10.20;;
69977;SDS011;57317;43.606;3.872;2024-03-23T01:18:53;26.30;;;10.73;;
69977;SDS011;57317;43.606;3.872;2024-03-23T01:21:18;29.98;;;11.10;;
69977;SDS011;57317;43.606;3.872;2024-03-23T01:23:44;28.00;;;11.43;;
69977;SDS011;57317;43.606;3.872;2024-03-23T01:26:10;29.95;;;11.05;;
69977;SDS011;57317;43.606;3.872;2024-03-23T01:28:35;27.67;;;10.98;;
69977;SDS011;57317;43.606;3.872;2024-03-23T01:31:01;26.48;;;11.23;;
69977;SDS011;57317;43.606;3.872;2024-03-23T01:33:27;30.33;;;12.18;;
69977;SDS011;57317;43.606;3.872;2024-03-23T01:35:52;30.95;;;12.20;;
69977;SDS011;57317;43.606;3.872;2024-03-23T01:38:18;29.83;;;12.02;;
69977;SDS011;57317;43.606;3.872;2024-03-23T01:40:43;26.75;;;11.77;;
69977;SDS011;57317;43.606;3.872;2024-03-23T01:43:08;28.58;;;12.43;;
69977;SDS011;57317;43.606;3.872;2024-03-23T01:45:34;29.90;;;12.25;;
69977;SDS011;57317;43.606;3.872;2024-03-23T01:48:00;30.77;;;11.85;;
69977;SDS011;57317;43.606;3.872;2024-03-23T01:50:26;29.73;;;12.25;;
69977;SDS011;57317;43.606;3.872;2024-03-23T01:55:17;31.17;;;11.90;;
69977;SDS011;57317;43.606;3.872;2024-03-23T01:57:43;29.17;;;12.45;;
69977;SDS011;57317;43.606;3.872;2024-03-23T02:00:08;28.92;;;12.93;;
69977;SDS011;57317;43.606;3.872;2024-03-23T02:02:40;30.33;;;12.10;;
69977;SDS011;57317;43.606;3.872;2024-03-23T02:05:09;31.75;;;12.23;;
69977;SDS011;57317;43.606;3.872;2024-03-23T02:07:35;29.00;;;11.90;;
69977;SDS011;57317;43.606;3.872;2024-03-23T02:10:01;30.42;;;12.40;;
69977;SDS011;57317;43.606;3.872;2024-03-23T02:12:26;28.27;;;11.50;;
69977;SDS011;57317;43.606;3.872;2024-03-23T02:14:52;28.23;;;11.40;;
69977;SDS011;57317;43.606;3.872;2024-03-23T02:17:17;27.35;;;10.85;;
69977;SDS011;57317;43.606;3.872;2024-03-23T02:19:43;28.83;;;11.07;;
69977;SDS011;57317;43.606;3.872;2024-03-23T02:22:08;26.83;;;10.82;;
69977;SDS011;57317;43.606;3.872;2024-03-23T02:24:35;26.90;;;10.68;;
69977;SDS011;57317;43.606;3.872;2024-03-23T02:27:02;29.75;;;11.82;;
69977;SDS011;57317;43.606;3.872;2024-03-23T02:29:28;26.27;;;10.57;;
69977;SDS011;57317;43.606;3.872;2024-03-23T02:31:53;26.70;;;10.70;;
69977;SDS011;57317;43.606;3.872;2024-03-23T02:34:18;24.95;;;10.35;;
69977;SDS011;57317;43.606;3.872;2024-03-23T02:36:44;28.25;;;11.40;;
69977;SDS011;57317;43.606;3.872;2024-03-23T02:39:09;23.95;;;10.73;;
69977;SDS011;57317;43.606;3.872;2024-03-23T02:41:35;25.75;;;10.25;;
69977;SDS011;57317;43.606;3.872;2024-03-23T02:44:00;26.40;;;10.60;;
69977;SDS011;57317;43.606;3.872;2024-03-23T02:46:26;26.83;;;11.68;;
69977;SDS011;57317;43.606;3.872;2024-03-23T02:48:51;25.13;;;10.60;;
69977;SDS011;57317;43.606;3.872;2024-03-23T02:51:17;26.58;;;10.88;;
69977;SDS011;57317;43.606;3.872;2024-03-23T02:53:42;27.27;;;10.90;;
69977;SDS011;57317;43.606;3.872;2024-03-23T02:56:08;24.95;;;10.93;;
69977;SDS011;57317;43.606;3.872;2024-03-23T02:58:33;26.77;;;10.70;;
69977;SDS011;57317;43.606;3.872;2024-03-23T03:00:59;26.42;;;10.90;;
69977;SDS011;57317;43.606;3.872;2024-03-23T03:03:24;24.50;;;10.55;;
69977;SDS011;57317;43.606;3.872;2024-03-23T03:05:54;29.92;;;11.20;;
69977;SDS011;57317;43.606;3.872;2024-03-23T03:08:20;24.55;;;10.68;;
69977;SDS011;57317;43.606;3.872;2024-03-23T03:10:46;26.38;;;10.60;;
69977;SDS011;57317;43.606;3.872;2024-03-23T03:13:11;25.23;;;11.32;;
69977;SDS011;57317;43.606;3.872;2024-03-23T03:15:37;27.38;;;11.50;;
69977;SDS011;57317;43.606;3.872;2024-03-23T03:18:02;26.38;;;11.25;;
69977;SDS011;57317;43.606;3.872;2024-03-23T03:20:28;25.10;;;11.30;;
69977;SDS011;57317;43.606;3.872;2024-03-23T03:22:53;27.65;;;11.23;;
69977;SDS011;57317;43.606;3.872;2024-03-23T03:25:19;27.15;;;10.88;;
69977;SDS011;57317;43.606;3.872;2024-03-23T03:27:44;27.55;;;10.95;;
69977;SDS011;57317;43.606;3.872;2024-03-23T03:30:10;28.13;;;10.75;;
69977;SDS011;57317;43.606;3.872;2024-03-23T03:32:36;25.00;;;10.68;;
69977;SDS011;57317;43.606;3.872;2024-03-23T03:35:01;28.15;;;11.40;;
69977;SDS011;57317;43.606;3.872;2024-03-23T03:37:27;26.38;;;10.85;;
69977;SDS011;57317;43.606;3.872;2024-03-23T03:39:52;25.52;;;10.38;;
69977;SDS011;57317;43.606;3.872;2024-03-23T03:42:18;29.77;;;11.05;;
69977;SDS011;57317;43.606;3.872;2024-03-23T03:44:43;28.83;;;11.25;;
69977;SDS011;57317;43.606;3.872;2024-03-23T03:47:08;27.05;;;10.40;;
69977;SDS011;57317;43.606;3.872;2024-03-23T03:49:34;30.50;;;11.98;;
69977;SDS011;57317;43.606;3.872;2024-03-23T03:52:00;25.85;;;10.52;;
69977;SDS011;57317;43.606;3.872;2024-03-23T03:54:26;26.35;;;11.05;;
69977;SDS011;57317;43.606;3.872;2024-03-23T03:56:52;27.77;;;11.63;;
69977;SDS011;57317;43.606;3.872;2024-03-23T03:59:18;25.05;;;10.93;;
69977;SDS011;57317;43.606;3.872;2024-03-23T04:01:43;26.20;;;11.27;;
69977;SDS011;57317;43.606;3.872;2024-03-23T04:04:09;28.63;;;11.68;;
69977;SDS011;57317;43.606;3.872;2024-03-23T04:06:34;28.52;;;11.65;;
69977;SDS011;57317;43.606;3.872;2024-03-23T04:11:25;26.97;;;11.17;;
69977;SDS011;57317;43.606;3.872;2024-03-23T04:13:51;30.27;;;12.63;;
69977;SDS011;57317;43.606;3.872;2024-03-23T04:16:29;27.58;;;11.88;;
69977;SDS011;57317;43.606;3.872;2024-03-23T04:18:59;29.85;;;12.77;;
69977;SDS011;57317;43.606;3.872;2024-03-23T04:21:25;29.52;;;12.30;;
69977;SDS011;57317;43.606;3.872;2024-03-23T04:23:50;30.35;;;12.38;;
69977;SDS011;57317;43.606;3.872;2024-03-23T04:26:15;30.27;;;12.88;;
69977;SDS011;57317;43.606;3.872;2024-03-23T04:28:41;28.60;;;12.40;;
69977;SDS011;57317;43.606;3.872;2024-03-23T04:31:07;31.42;;;12.40;;
69977;SDS011;57317;43.606;3.872;2024-03-23T04:33:33;32.75;;;13.13;;
69977;SDS011;57317;43.606;3.872;2024-03-23T04:35:59;30.73;;;13.07;;
69977;SDS011;57317;43.606;3.872;2024-03-23T04:38:24;29.63;;;13.45;;
69977;SDS011;57317;43.606;3.872;2024-03-23T04:40:59;32.75;;;13.95;;
69977;SDS011;57317;43.606;3.872;2024-03-23T04:43:25;27.92;;;13.30;;
69977;SDS011;57317;43.606;3.872;2024-03-23T04:45:51;27.50;;;13.15;;
69977;SDS011;57317;43.606;3.872;2024-03-23T04:48:19;29.83;;;13.63;;
69977;SDS011;57317;43.606;3.872;2024-03-23T04:50:45;30.60;;;12.95;;
69977;SDS011;57317;43.606;3.872;2024-03-23T04:53:10;29.10;;;12.90;;
69977;SDS011;57317;43.606;3.872;2024-03-23T04:55:36;27.52;;;12.13;;
69977;SDS011;57317;43.606;3.872;2024-03-23T04:58:02;29.42;;;12.63;;
69977;SDS011;57317;43.606;3.872;2024-03-23T05:00:28;29.83;;;12.02;;
69977;SDS011;57317;43.606;3.872;2024-03-23T05:02:53;27.63;;;12.88;;
69977;SDS011;57317;43.606;3.872;2024-03-23T05:05:19;35.67;;;13.45;;
69977;SDS011;57317;43.606;3.872;2024-03-23T05:07:44;31.13;;;12.75;;
69977;SDS011;57317;43.606;3.872;2024-03-23T05:10:09;30.73;;;13.50;;
69977;SDS011;57317;43.606;3.872;2024-03-23T05:12:39;30.83;;;12.77;;
69977;SDS011;57317;43.606;3.872;2024-03-23T05:15:05;32.22;;;13.85;;
69977;SDS011;57317;43.606;3.872;2024-03-23T05:17:32;30.90;;;13.43;;
69977;SDS011;57317;43.606;3.872;2024-03-23T05:19:57;30.45;;;13.35;;
69977;SDS011;57317;43.606;3.872;2024-03-23T05:22:23;29.63;;;13.32;;
69977;SDS011;57317;43.606;3.872;2024-03-23T05:24:48;28.58;;;13.40;;
69977;SDS011;57317;43.606;3.872;2024-03-23T05:27:14;35.80;;;14.18;;
69977;SDS011;57317;43.606;3.872;2024-03-23T05:29:40;36.35;;;13.30;;
69977;SDS011;57317;43.606;3.872;2024-03-23T05:32:05;34.10;;;14.93;;
69977;SDS011;57317;43.606;3.872;2024-03-23T05:34:31;37.28;;;15.30;;
69977;SDS011;57317;43.606;3.872;2024-03-23T05:36:56;149.55;;;73.40;;
69977;SDS011;57317;43.606;3.872;2024-03-23T05:39:22;39.35;;;16.60;;
69977;SDS011;57317;43.606;3.872;2024-03-23T05:41:48;37.03;;;15.95;;
69977;SDS011;57317;43.606;3.872;2024-03-23T05:44:13;37.63;;;16.15;;
69977;SDS011;57317;43.606;3.872;2024-03-23T05:46:40;35.22;;;16.27;;
69977;SDS011;57317;43.606;3.872;2024-03-23T05:49:05;37.13;;;16.90;;
69977;SDS011;57317;43.606;3.872;2024-03-23T05:51:31;37.22;;;16.15;;
69977;SDS011;57317;43.606;3.872;2024-03-23T05:53:56;37.03;;;16.27;;
69977;SDS011;57317;43.606;3.872;2024-03-23T05:56:22;39.55;;;16.73;;
69977;SDS011;57317;43.606;3.872;2024-03-23T05:58:47;40.45;;;17.42;;
69977;SDS011;57317;43.606;3.872;2024-03-23T06:01:13;36.38;;;16.48;;
69977;SDS011;57317;43.606;3.872;2024-03-23T06:03:39;39.17;;;17.40;;
69977;SDS011;57317;43.606;3.872;2024-03-23T06:06:04;38.47;;;17.40;;
69977;SDS011;57317;43.606;3.872;2024-03-23T06:08:35;43.08;;;18.27;;
69977;SDS011;57317;43.606;3.872;2024-03-23T06:11:00;42.40;;;18.75;;
69977;SDS011;57317;43.606;3.872;2024-03-23T06:13:26;41.88;;;17.92;;
69977;SDS011;57317;43.606;3.872;2024-03-23T06:15:55;187.38;;;79.53;;
69977;SDS011;57317;43.606;3.872;2024-03-23T06:18:20;40.03;;;17.33;;
69977;SDS011;57317;43.606;3.872;2024-03-23T06:20:45;41.22;;;18.20;;
69977;SDS011;57317;43.606;3.872;2024-03-23T06:23:11;40.88;;;17.55;;
69977;SDS011;57317;43.606;3.872;2024-03-23T06:25:37;42.70;;;18.73;;
69977;SDS011;57317;43.606;3.872;2024-03-23T06:28:03;40.83;;;18.20;;
69977;SDS011;57317;43.606;3.872;2024-03-23T06:30:29;39.35;;;17.88;;
69977;SDS011;57317;43.606;3.872;2024-03-23T06:32:56;42.45;;;17.85;;
69977;SDS011;57317;43.606;3.872;2024-03-23T06:35:22;40.42;;;17.35;;
69977;SDS011;57317;43.606;3.872;2024-03-23T06:37:47;42.15;;;17.75;;
69977;SDS011;57317;43.606;3.872;2024-03-23T06:40:12;41.55;;;17.10;;
69977;SDS011;57317;43.606;3.872;2024-03-23T06:42:38;41.60;;;17.20;;
69977;SDS011;57317;43.606;3.872;2024-03-23T06:45:04;39.65;;;17.10;;
69977;SDS011;57317;43.606;3.872;2024-03-23T06:47:30;38.55;;;16.75;;
69977;SDS011;57317;43.606;3.872;2024-03-23T06:49:56;38.47;;;16.90;;
69977;SDS011;57317;43.606;3.872;2024-03-23T06:52:21;39.40;;;16.65;;
69977;SDS011;57317;43.606;3.872;2024-03-23T06:54:47;38.83;;;16.33;;
69977;SDS011;57317;43.606;3.872;2024-03-23T06:57:12;38.80;;;16.65;;
69977;SDS011;57317;43.606;3.872;2024-03-23T06:59:38;38.35;;;16.92;;
69977;SDS011;57317;43.606;3.872;2024-03-23T07:02:06;38.75;;;16.75;;
69977;SDS011;57317;43.606;3.872;2024-03-23T07:04:33;38.13;;;16.55;;
69977;SDS011;57317;43.606;3.872;2024-03-23T07:06:59;38.58;;;16.08;;
69977;SDS011;57317;43.606;3.872;2024-03-23T07:09:26;36.67;;;15.95;;
69977;SDS011;57317;43.606;3.872;2024-03-23T07:11:59;35.60;;;14.65;;
69977;SDS011;57317;43.606;3.872;2024-03-23T07:14:24;38.38;;;14.05;;
69977;SDS011;57317;43.606;3.872;2024-03-23T07:16:50;31.15;;;13.75;;
69977;SDS011;57317;43.606;3.872;2024-03-23T07:19:16;30.40;;;11.95;;
69977;SDS011;57317;43.606;3.872;2024-03-23T07:21:42;27.90;;;11.18;;
69977;SDS011;57317;43.606;3.872;2024-03-23T07:24:08;28.42;;;11.05;;
69977;SDS011;57317;43.606;3.872;2024-03-23T07:26:34;28.27;;;11.32;;
69977;SDS011;57317;43.606;3.872;2024-03-23T07:28:59;31.08;;;14.38;;
69977;SDS011;57317;43.606;3.872;2024-03-23T07:31:25;28.10;;;12.15;;
69977;SDS011;57317;43.606;3.872;2024-03-23T07:33:50;27.20;;;11.65;;
69977;SDS011;57317;43.606;3.872;2024-03-23T07:36:16;28.13;;;11.43;;
69977;SDS011;57317;43.606;3.872;2024-03-23T07:38:41;25.20;;;10.88;;
69977;SDS011;57317;43.606;3.872;2024-03-23T07:43:34;24.23;;;9.68;;
69977;SDS011;57317;43.606;3.872;2024-03-23T07:46:00;22.83;;;9.63;;
69977;SDS011;57317;43.606;3.872;2024-03-23T07:48:26;22.13;;;9.57;;
69977;SDS011;57317;43.606;3.872;2024-03-23T07:51:01;19.88;;;8.15;;
69977;SDS011;57317;43.606;3.872;2024-03-23T07:53:34;21.38;;;7.80;;
69977;SDS011;57317;43.606;3.872;2024-03-23T07:56:01;20.38;;;7.78;;
69977;SDS011;57317;43.606;3.872;2024-03-23T07:58:36;19.23;;;7.30;;
69977;SDS011;57317;43.606;3.872;2024-03-23T08:03:34;16.77;;;6.47;;
69977;SDS011;57317;43.606;3.872;2024-03-23T08:06:21;17.55;;;6.80;;
69977;SDS011;57317;43.606;3.872;2024-03-23T08:08:52;15.82;;;6.22;;
69977;SDS011;57317;43.606;3.872;2024-03-23T08:11:33;17.75;;;6.40;;
69977;SDS011;57317;43.606;3.872;2024-03-23T08:14:03;15.25;;;4.28;;
69977;SDS011;57317;43.606;3.872;2024-03-23T08:16:29;11.95;;;2.38;;
69977;SDS011;57317;43.606;3.872;2024-03-23T08:18:54;11.27;;;2.15;;
69977;SDS011;57317;43.606;3.872;2024-03-23T08:21:23;8.52;;;1.80;;
69977;SDS011;57317;43.606;3.872;2024-03-23T08:23:50;8.70;;;1.55;;
69977;SDS011;57317;43.606;3.872;2024-03-23T08:26:16;8.27;;;1.52;;
69977;SDS011;57317;43.606;3.872;2024-03-23T08:28:42;9.20;;;1.48;;
69977;SDS011;57317;43.606;3.872;2024-03-23T08:31:08;10.90;;;1.42;;
69977;SDS011;57317;43.606;3.872;2024-03-23T08:33:37;9.88;;;1.50;;
69977;SDS011;57317;43.606;3.872;2024-03-23T08:36:06;12.43;;;1.50;;
69977;SDS011;57317;43.606;3.872;2024-03-23T08:38:32;8.73;;;1.80;;
69977;SDS011;57317;43.606;3.872;2024-03-23T08:41:02;8.80;;;1.60;;
69977;SDS011;57317;43.606;3.872;2024-03-23T08:43:29;15.40;;;1.70;;
69977;SDS011;57317;43.606;3.872;2024-03-23T08:46:02;8.40;;;1.60;;
69977;SDS011;57317;43.606;3.872;2024-03-23T08:48:29;7.45;;;1.60;;
69977;SDS011;57317;43.606;3.872;2024-03-23T08:53:38;7.38;;;1.60;;
69977;SDS011;57317;43.606;3.872;2024-03-23T08:58:31;9.20;;;1.70;;
69977;SDS011;57317;43.606;3.872;2024-03-23T09:01:02;7.43;;;1.60;;
69977;SDS011;57317;43.606;3.872;2024-03-23T09:03:29;8.35;;;1.55;;
69977;SDS011;57317;43.606;3.872;2024-03-23T09:08:20;8.45;;;1.60;;
69977;SDS011;57317;43.606;3.872;2024-03-23T09:13:12;15.52;;;5.97;;
69977;SDS011;57317;43.606;3.872;2024-03-23T09:18:10;5.78;;;1.40;;
69977;SDS011;57317;43.606;3.872;2024-03-23T09:23:00;9.53;;;1.60;;
69977;SDS011;57317;43.606;3.872;2024-03-23T09:25:26;9.15;;;1.80;;
69977;SDS011;57317;43.606;3.872;2024-03-23T09:30:16;10.37;;;2.00;;
69977;SDS011;57317;43.606;3.872;2024-03-23T09:32:43;9.13;;;1.92;;
69977;SDS011;57317;43.606;3.872;2024-03-23T09:35:08;8.00;;;1.70;;
69977;SDS011;57317;43.606;3.872;2024-03-23T09:37:34;7.95;;;1.73;;
69977;SDS011;57317;43.606;3.872;2024-03-23T09:39:59;7.63;;;1.70;;
69977;SDS011;57317;43.606;3.872;2024-03-23T09:42:25;8.90;;;1.60;;
69977;SDS011;57317;43.606;3.872;2024-03-23T09:44:51;8.00;;;1.63;;
69977;SDS011;57317;43.606;3.872;2024-03-23T09:47:16;8.20;;;1.70;;
69977;SDS011;57317;43.606;3.872;2024-03-23T09:49:42;9.25;;;1.70;;
69977;SDS011;57317;43.606;3.872;2024-03-23T09:52:08;9.77;;;1.80;;
69977;SDS011;57317;43.606;3.872;2024-03-23T09:54:33;7.13;;;1.50;;
69977;SDS011;57317;43.606;3.872;2024-03-23T09:56:59;8.00;;;1.50;;
69977;SDS011;57317;43.606;3.872;2024-03-23T09:59:24;8.98;;;2.10;;
69977;SDS011;57317;43.606;3.872;2024-03-23T10:01:52;11.27;;;2.30;;
69977;SDS011;57317;43.606;3.872;2024-03-23T10:07:12;9.80;;;1.88;;
69977;SDS011;57317;43.606;3.872;2024-03-23T10:09:38;9.15;;;1.90;;
69977;SDS011;57317;43.606;3.872;2024-03-23T10:12:10;8.40;;;1.70;;
69977;SDS011;57317;43.606;3.872;2024-03-23T10:14:38;9.20;;;1.80;;
69977;SDS011;57317;43.606;3.872;2024-03-23T10:17:19;8.73;;;1.60;;
69977;SDS011;57317;43.606;3.872;2024-03-23T10:19:49;6.35;;;1.50;;
69977;SDS011;57317;43.606;3.872;2024-03-23T10:22:19;7.32;;;1.38;;
69977;SDS011;57317;43.606;3.872;2024-03-23T10:24:46;9.50;;;1.60;;
69977;SDS011;57317;43.606;3.872;2024-03-23T10:27:15;6.15;;;1.48;;
69977;SDS011;57317;43.606;3.872;2024-03-23T10:29:43;7.70;;;1.60;;
69977;SDS011;57317;43.606;3.872;2024-03-23T10:32:12;7.07;;;1.55;;
69977;SDS011;57317;43.606;3.872;2024-03-23T10:34:39;5.72;;;1.48;;
69977;SDS011;57317;43.606;3.872;2024-03-23T10:37:05;7.90;;;1.33;;
69977;SDS011;57317;43.606;3.872;2024-03-23T10:39:37;4.63;;;1.38;;
69977;SDS011;57317;43.606;3.872;2024-03-23T10:42:04;5.80;;;1.40;;
69977;SDS011;57317;43.606;3.872;2024-03-23T10:44:33;5.95;;;1.48;;
69977;SDS011;57317;43.606;3.872;2024-03-23T10:47:02;5.57;;;1.30;;
69977;SDS011;57317;43.606;3.872;2024-03-23T10:49:30;6.50;;;1.50;;
69977;SDS011;57317;43.606;3.872;2024-03-23T10:51:57;6.63;;;1.50;;
69977;SDS011;57317;43.606;3.872;2024-03-23T10:54:24;6.55;;;1.50;;
69977;SDS011;57317;43.606;3.872;2024-03-23T10:56:51;9.23;;;1.60;;
69977;SDS011;57317;43.606;3.872;2024-03-23T10:59:22;5.72;;;1.48;;
69977;SDS011;57317;43.606;3.872;2024-03-23T11:01:57;7.38;;;1.45;;
69977;SDS011;57317;43.606;3.872;2024-03-23T11:04:30;9.32;;;1.48;;
69977;SDS011;57317;43.606;3.872;2024-03-23T11:06:56;6.85;;;1.30;;
69977;SDS011;57317;43.606;3.872;2024-03-23T11:12:45;6.07;;;1.30;;
69977;SDS011;57317;43.606;3.872;2024-03-23T11:14:49;6.22;;;1.58;;
69977;SDS011;57317;43.606;3.872;2024-03-23T11:17:22;5.35;;;1.40;;
69977;SDS011;57317;43.606;3.872;2024-03-23T11:19:55;5.93;;;1.38;;
69977;SDS011;57317;43.606;3.872;2024-03-23T11:25:02;13.45;;;1.58;;
69977;SDS011;57317;43.606;3.872;2024-03-23T11:27:28;8.20;;;1.45;;
69977;SDS011;57317;43.606;3.872;2024-03-23T11:29:53;8.70;;;1.50;;
69977;SDS011;57317;43.606;3.872;2024-03-23T11:32:19;8.30;;;1.50;;
69977;SDS011;57317;43.606;3.872;2024-03-23T11:34:44;7.25;;;1.33;;
69977;SDS011;57317;43.606;3.872;2024-03-23T11:37:09;5.90;;;1.50;;
69977;SDS011;57317;43.606;3.872;2024-03-23T11:39:35;8.77;;;1.50;;
69977;SDS011;57317;43.606;3.872;2024-03-23T11:42:00;6.15;;;1.40;;
69977;SDS011;57317;43.606;3.872;2024-03-23T11:44:26;5.97;;;1.40;;
69977;SDS011;57317;43.606;3.872;2024-03-23T11:46:52;7.30;;;1.50;;
69977;SDS011;57317;43.606;3.872;2024-03-23T11:49:24;8.30;;;1.48;;
69977;SDS011;57317;43.606;3.872;2024-03-23T11:51:50;9.43;;;1.70;;
69977;SDS011;57317;43.606;3.872;2024-03-23T11:54:16;8.52;;;1.63;;
69977;SDS011;57317;43.606;3.872;2024-03-23T11:56:53;8.23;;;1.90;;
69977;SDS011;57317;43.606;3.872;2024-03-23T12:01:57;7.60;;;1.42;;
69977;SDS011;57317;43.606;3.872;2024-03-23T12:04:29;8.93;;;1.40;;
69977;SDS011;57317;43.606;3.872;2024-03-23T12:07:10;7.80;;;1.33;;
69977;SDS011;57317;43.606;3.872;2024-03-23T12:09:36;7.47;;;1.67;;
69977;SDS011;57317;43.606;3.872;2024-03-23T12:12:11;5.95;;;1.25;;
69977;SDS011;57317;43.606;3.872;2024-03-23T12:14:40;6.78;;;1.40;;
69977;SDS011;57317;43.606;3.872;2024-03-23T12:19:35;6.57;;;1.38;;
69977;SDS011;57317;43.606;3.872;2024-03-23T12:22:02;8.07;;;1.50;;
69977;SDS011;57317;43.606;3.872;2024-03-23T12:24:28;7.35;;;1.60;;
69977;SDS011;57317;43.606;3.872;2024-03-23T12:26:54;8.75;;;1.60;;
69977;SDS011;57317;43.606;3.872;2024-03-23T12:29:20;5.75;;;1.35;;
69977;SDS011;57317;43.606;3.872;2024-03-23T12:31:45;6.35;;;1.45;;
69977;SDS011;57317;43.606;3.872;2024-03-23T12:34:11;6.30;;;1.30;;
69977;SDS011;57317;43.606;3.872;2024-03-23T12:36:36;7.85;;;1.40;;
69977;SDS011;57317;43.606;3.872;2024-03-23T12:39:01;6.78;;;1.30;;
69977;SDS011;57317;43.606;3.872;2024-03-23T12:41:27;5.55;;;1.40;;
69977;SDS011;57317;43.606;3.872;2024-03-23T12:43:52;13.45;;;4.80;;
69977;SDS011;57317;43.606;3.872;2024-03-23T12:46:18;7.28;;;1.40;;
69977;SDS011;57317;43.606;3.872;2024-03-23T12:48:46;6.22;;;1.30;;
69977;SDS011;57317;43.606;3.872;2024-03-23T12:51:12;6.47;;;1.30;;
69977;SDS011;57317;43.606;3.872;2024-03-23T12:53:37;4.93;;;1.20;;
69977;SDS011;57317;43.606;3.872;2024-03-23T12:56:02;7.75;;;1.50;;
69977;SDS011;57317;43.606;3.872;2024-03-23T12:58:28;7.72;;;1.20;;
69977;SDS011;57317;43.606;3.872;2024-03-23T13:00:53;6.30;;;1.00;;
69977;SDS011;57317;43.606;3.872;2024-03-23T13:03:19;5.70;;;1.20;;
69977;SDS011;57317;43.606;3.872;2024-03-23T13:05:51;6.45;;;1.00;;
69977;SDS011;57317;43.606;3.872;2024-03-23T13:08:17;6.78;;;1.17;;
69977;SDS011;57317;43.606;3.872;2024-03-23T13:10:42;9.68;;;1.13;;
69977;SDS011;57317;43.606;3.872;2024-03-23T13:13:08;4.55;;;1.00;;
69977;SDS011;57317;43.606;3.872;2024-03-23T13:15:33;6.20;;;1.20;;
69977;SDS011;57317;43.606;3.872;2024-03-23T13:17:59;6.90;;;1.10;;
69977;SDS011;57317;43.606;3.872;2024-03-23T13:20:24;7.35;;;1.20;;
69977;SDS011;57317;43.606;3.872;2024-03-23T13:22:49;4.70;;;1.02;;
69977;SDS011;57317;43.606;3.872;2024-03-23T13:25:17;4.13;;;1.00;;
69977;SDS011;57317;43.606;3.872;2024-03-23T13:27:43;6.95;;;1.40;;
69977;SDS011;57317;43.606;3.872;2024-03-23T13:30:09;9.75;;;1.60;;
69977;SDS011;57317;43.606;3.872;2024-03-23T13:32:35;12.30;;;1.63;;
69977;SDS011;57317;43.606;3.872;2024-03-23T13:35:00;112.07;;;5.15;;
69977;SDS011;57317;43.606;3.872;2024-03-23T13:37:26;7.28;;;1.17;;
69977;SDS011;57317;43.606;3.872;2024-03-23T13:39:52;6.80;;;1.30;;
69977;SDS011;57317;43.606;3.872;2024-03-23T13:42:17;10.88;;;1.40;;
69977;SDS011;57317;43.606;3.872;2024-03-23T13:44:43;6.60;;;1.10;;
69977;SDS011;57317;43.606;3.872;2024-03-23T13:47:08;7.53;;;1.33;;
69977;SDS011;57317;43.606;3.872;2024-03-23T13:49:34;6.22;;;1.25;;
69977;SDS011;57317;43.606;3.872;2024-03-23T13:51:59;5.85;;;1.13;;
69977;SDS011;57317;43.606;3.872;2024-03-23T13:54:25;7.93;;;1.30;;
69977;SDS011;57317;43.606;3.872;2024-03-23T13:56:51;7.00;;;1.17;;
69977;SDS011;57317;43.606;3.872;2024-03-23T13:59:17;5.45;;;1.20;;
69977;SDS011;57317;43.606;3.872;2024-03-23T14:01:43;6.78;;;1.20;;
69977;SDS011;57317;43.606;3.872;2024-03-23T14:04:10;6.85;;;1.23;;
69977;SDS011;57317;43.606;3.872;2024-03-23T14:06:36;6.78;;;1.13;;
69977;SDS011;57317;43.606;3.872;2024-03-23T14:09:02;7.60;;;1.50;;
69977;SDS011;57317;43.606;3.872;2024-03-23T14:11:28;7.93;;;1.10;;
69977;SDS011;57317;43.606;3.872;2024-03-23T14:13:54;7.45;;;1.20;;
69977;SDS011;57317;43.606;3.872;2024-03-23T14:16:19;7.90;;;1.25;;
69977;SDS011;57317;43.606;3.872;2024-03-23T14:18:48;7.53;;;1.10;;
69977;SDS011;57317;43.606;3.872;2024-03-23T14:21:13;9.50;;;1.30;;
69977;SDS011;57317;43.606;3.872;2024-03-23T14:23:39;8.30;;;1.30;;
69977;SDS011;57317;43.606;3.872;2024-03-23T14:26:06;5.68;;;1.08;;
69977;SDS011;57317;43.606;3.872;2024-03-23T14:28:31;8.10;;;1.40;;
69977;SDS011;57317;43.606;3.872;2024-03-23T14:30:57;7.75;;;1.20;;
69977;SDS011;57317;43.606;3.872;2024-03-23T14:33:22;16.30;;;5.80;;
69977;SDS011;57317;43.606;3.872;2024-03-23T14:35:52;7.60;;;1.30;;
69977;SDS011;57317;43.606;3.872;2024-03-23T14:38:18;5.82;;;1.02;;
69977;SDS011;57317;43.606;3.872;2024-03-23T14:40:45;8.25;;;1.23;;
69977;SDS011;57317;43.606;3.872;2024-03-23T14:43:11;7.70;;;1.40;;
69977;SDS011;57317;43.606;3.872;2024-03-23T14:45:36;8.18;;;1.40;;
69977;SDS011;57317;43.606;3.872;2024-03-23T14:48:02;9.73;;;1.40;;
69977;SDS011;57317;43.606;3.872;2024-03-23T14:50:27;10.38;;;1.70;;
69977;SDS011;57317;43.606;3.872;2024-03-23T14:52:53;8.77;;;1.50;;
69977;SDS011;57317;43.606;3.872;2024-03-23T14:55:18;10.68;;;1.40;;
69977;SDS011;57317;43.606;3.872;2024-03-23T14:57:44;8.77;;;1.30;;
69977;SDS011;57317;43.606;3.872;2024-03-23T15:00:10;7.65;;;1.40;;
69977;SDS011;57317;43.606;3.872;2024-03-23T15:02:39;7.47;;;1.13;;
69977;SDS011;57317;43.606;3.872;2024-03-23T15:05:05;9.35;;;1.30;;
69977;SDS011;57317;43.606;3.872;2024-03-23T15:07:34;7.55;;;1.40;;
69977;SDS011;57317;43.606;3.872;2024-03-23T15:09:59;10.85;;;1.50;;
69977;SDS011;57317;43.606;3.872;2024-03-23T15:12:25;6.68;;;1.30;;
69977;SDS011;57317;43.606;3.872;2024-03-23T15:14:50;8.73;;;1.30;;
69977;SDS011;57317;43.606;3.872;2024-03-23T15:17:15;8.65;;;1.20;;
69977;SDS011;57317;43.606;3.872;2024-03-23T15:19:41;10.88;;;1.48;;
69977;SDS011;57317;43.606;3.872;2024-03-23T15:22:07;11.13;;;1.63;;
69977;SDS011;57317;43.606;3.872;2024-03-23T15:24:34;9.80;;;1.48;;
69977;SDS011;57317;43.606;3.872;2024-03-23T15:27:00;7.55;;;1.50;;
69977;SDS011;57317;43.606;3.872;2024-03-23T15:29:26;9.05;;;1.35;;
69977;SDS011;57317;43.606;3.872;2024-03-23T15:31:51;10.15;;;1.60;;
69977;SDS011;57317;43.606;3.872;2024-03-23T15:34:18;9.60;;;1.30;;
69977;SDS011;57317;43.606;3.872;2024-03-23T15:36:46;8.70;;;1.50;;
69977;SDS011;57317;43.606;3.872;2024-03-23T15:39:13;7.97;;;1.48;;
69977;SDS011;57317;43.606;3.872;2024-03-23T15:41:39;8.23;;;1.38;;
69977;SDS011;57317;43.606;3.872;2024-03-23T15:44:04;9.02;;;1.33;;
69977;SDS011;57317;43.606;3.872;2024-03-23T15:46:31;11.02;;;1.55;;
69977;SDS011;57317;43.606;3.872;2024-03-23T15:48:56;9.57;;;1.42;;
69977;SDS011;57317;43.606;3.872;2024-03-23T15:51:21;8.98;;;1.35;;
69977;SDS011;57317;43.606;3.872;2024-03-23T15:53:47;9.23;;;1.40;;
69977;SDS011;57317;43.606;3.872;2024-03-23T15:56:12;10.10;;;1.60;;
69977;SDS011;57317;43.606;3.872;2024-03-23T15:58:38;8.15;;;1.40;;
69977;SDS011;57317;43.606;3.872;2024-03-23T16:01:07;9.07;;;1.50;;